createdAt,value
2022-11-09T00:02:02.761Z,256.90
2022-11-09T00:05:06.059Z,332.55
2022-11-09T00:08:10.569Z,227.20
2022-11-09T00:11:13.457Z,259.17
2022-11-09T00:14:17.714Z,222.95
2022-11-09T00:17:20.402Z,214.88
2022-11-09T00:20:23.222Z,157.45
2022-11-09T00:23:25.886Z,242.43
2022-11-09T00:26:28.627Z,218.40
2022-11-09T00:29:31.398Z,259.23
2022-11-09T00:32:34.152Z,135.85
2022-11-09T00:35:38.862Z,139.60
2022-11-09T00:38:42.626Z,175.05
2022-11-09T00:41:45.270Z,146.93
2022-11-09T00:44:47.992Z,204.63
2022-11-09T00:47:50.690Z,120.05
2022-11-09T00:50:55.039Z,117.82
2022-11-09T00:53:58.636Z,152.33
2022-11-09T00:57:01.505Z,136.47
2022-11-09T01:00:05.802Z,203.88
2022-11-09T01:03:08.612Z,200.85
2022-11-09T01:06:25.605Z,176.27
2022-11-09T01:09:28.440Z,161.77
2022-11-09T01:12:31.255Z,215.67
2022-11-09T01:15:33.938Z,187.52
2022-11-09T01:18:39.985Z,152.00
2022-11-09T01:21:42.783Z,109.05
2022-11-09T01:24:46.174Z,117.33
2022-11-09T01:27:48.921Z,120.57
2022-11-09T01:30:51.666Z,89.32
2022-11-09T01:33:55.283Z,142.50
2022-11-09T01:36:58.187Z,104.47
2022-11-09T01:40:01.076Z,115.45
2022-11-09T01:43:23.559Z,98.17
2022-11-09T01:46:49.721Z,93.85
2022-11-09T01:50:00.327Z,133.40
2022-11-09T01:53:05.666Z,75.78
2022-11-09T01:56:11.580Z,96.83
2022-11-09T01:59:22.745Z,102.73
2022-11-09T02:02:26.078Z,105.72
2022-11-09T02:05:32.244Z,170.25
2022-11-09T02:08:35.096Z,138.18
2022-11-09T02:11:38.471Z,204.77
2022-11-09T02:14:41.827Z,165.67
2022-11-09T02:17:45.745Z,194.90
2022-11-09T02:20:51.705Z,210.73
2022-11-09T02:23:54.483Z,151.90
2022-11-09T02:26:59.442Z,206.23
2022-11-09T02:30:03.566Z,186.73
2022-11-09T02:33:06.583Z,183.80
2022-11-09T02:36:09.761Z,258.83
2022-11-09T02:39:15.379Z,245.00
2022-11-09T02:42:21.633Z,314.07
2022-11-09T02:45:27.409Z,349.87
2022-11-09T02:48:30.568Z,395.92
2022-11-09T02:51:33.970Z,322.80
2022-11-09T02:54:36.920Z,351.63
2022-11-09T02:57:41.087Z,201.27
2022-11-09T03:00:45.890Z,262.20
2022-11-09T03:03:49.819Z,248.07
2022-11-09T03:06:52.743Z,252.88
2022-11-09T03:09:55.925Z,262.52
2022-11-09T03:13:00.776Z,256.10
2022-11-09T03:16:05.677Z,170.17
2022-11-09T03:19:11.777Z,167.43
2022-11-09T03:22:14.981Z,162.05
2022-11-09T03:25:21.085Z,184.85
2022-11-09T03:28:25.008Z,166.93
2022-11-09T03:31:29.054Z,178.00
2022-11-09T03:34:33.309Z,228.40
2022-11-09T03:37:36.567Z,154.95
2022-11-09T03:40:40.437Z,125.32
2022-11-09T03:43:43.337Z,150.80
2022-11-09T03:46:46.176Z,129.33
2022-11-09T03:49:48.934Z,120.00
2022-11-09T03:52:51.577Z,169.15
2022-11-09T03:55:54.285Z,111.00
2022-11-09T03:58:57.069Z,154.40
2022-11-09T04:01:59.933Z,145.13
2022-11-09T04:05:02.825Z,170.55
2022-11-09T04:08:05.712Z,128.05
2022-11-09T04:11:08.378Z,123.05
2022-11-09T04:14:11.065Z,125.83
2022-11-09T04:17:13.736Z,174.50
2022-11-09T04:20:17.008Z,166.55
2022-11-09T04:23:20.032Z,195.00
2022-11-09T04:26:22.865Z,126.25
2022-11-09T04:29:25.651Z,116.33
2022-11-09T04:32:28.332Z,131.00
2022-11-09T04:35:33.453Z,155.82
2022-11-09T04:38:36.673Z,185.77
2022-11-09T04:41:39.388Z,196.52
2022-11-09T04:44:48.733Z,148.30
2022-11-09T04:47:51.405Z,129.33
2022-11-09T04:51:00.520Z,104.15
2022-11-09T04:54:03.224Z,101.47
2022-11-09T04:57:05.983Z,100.82
2022-11-09T05:00:09.447Z,101.73
2022-11-09T05:03:12.273Z,136.90
2022-11-09T05:06:33.410Z,120.47
2022-11-09T05:09:36.321Z,131.05
2022-11-09T05:12:42.223Z,115.40
2022-11-09T05:15:47.616Z,118.50
2022-11-09T05:18:51.038Z,147.73
2022-11-09T05:21:53.678Z,123.13
2022-11-09T05:24:56.455Z,156.73
2022-11-09T05:27:59.378Z,140.52
2022-11-09T05:31:02.230Z,143.07
2022-11-09T05:34:06.619Z,144.60
2022-11-09T05:37:09.309Z,118.97
2022-11-09T05:40:12.151Z,172.43
2022-11-09T05:43:15.011Z,152.15
2022-11-09T05:46:19.045Z,212.27
2022-11-09T05:49:21.844Z,266.73
2022-11-09T05:52:24.546Z,230.90
2022-11-09T05:55:28.070Z,245.43
2022-11-09T05:58:33.202Z,358.67
2022-11-09T06:01:36.051Z,225.37
2022-11-09T06:04:38.845Z,210.97
2022-11-09T06:07:41.576Z,176.27
2022-11-09T06:10:44.425Z,244.48
2022-11-09T06:13:47.111Z,334.17
2022-11-09T06:16:49.880Z,303.05
2022-11-09T06:19:52.897Z,366.07
2022-11-09T06:23:02.440Z,371.00
2022-11-09T06:26:10.016Z,452.77
2022-11-09T06:29:12.970Z,468.10
2022-11-09T06:32:15.670Z,422.03
2022-11-09T06:35:18.444Z,301.67
2022-11-09T06:38:21.347Z,326.80
2022-11-09T06:41:24.019Z,228.70
2022-11-09T06:44:26.812Z,254.90
2022-11-09T06:47:29.818Z,349.23
2022-11-09T06:50:33.922Z,382.13
2022-11-09T06:53:38.047Z,247.82
2022-11-09T06:56:40.861Z,137.73
2022-11-09T06:59:44.836Z,163.27
2022-11-09T07:02:49.841Z,136.53
2022-11-09T07:05:53.484Z,144.13
2022-11-09T07:08:57.302Z,173.90
2022-11-09T07:12:00.244Z,106.32
2022-11-09T07:15:04.061Z,121.18
2022-11-09T07:18:10.423Z,152.90
2022-11-09T07:21:14.537Z,114.50
2022-11-09T07:24:17.488Z,119.65
2022-11-09T07:27:24.857Z,119.63
2022-11-09T07:30:30.232Z,79.25
2022-11-09T07:33:33.923Z,92.32
2022-11-09T07:36:39.362Z,121.63
2022-11-09T07:39:42.323Z,99.50
2022-11-09T07:42:45.380Z,108.97
2022-11-09T07:45:48.360Z,128.10
2022-11-09T07:48:51.209Z,120.75
2022-11-09T07:51:54.736Z,121.57
2022-11-09T07:54:57.762Z,101.43
2022-11-09T07:58:03.967Z,84.25
2022-11-09T08:01:08.662Z,111.30
2022-11-09T08:04:11.550Z,134.07
2022-11-09T08:07:14.772Z,117.63
2022-11-09T08:10:17.585Z,71.75
2022-11-09T08:13:20.863Z,52.25
2022-11-09T08:16:24.317Z,76.32
2022-11-09T08:19:27.027Z,103.88
2022-11-09T08:22:29.773Z,86.17
2022-11-09T08:25:34.488Z,129.63
2022-11-09T08:28:37.796Z,94.97
2022-11-09T08:31:40.656Z,120.25
2022-11-09T08:34:47.831Z,111.57
2022-11-09T08:37:52.436Z,126.60
2022-11-09T08:40:59.122Z,110.05
2022-11-09T08:44:04.079Z,116.25
2022-11-09T08:47:06.853Z,100.65
2022-11-09T08:50:11.013Z,86.22
2022-11-09T08:53:13.674Z,102.47
2022-11-09T08:56:18.584Z,131.18
2022-11-09T08:59:21.379Z,77.38
2022-11-09T09:02:24.661Z,107.97
2022-11-09T09:05:27.409Z,86.15
2022-11-09T09:08:30.218Z,92.00
2022-11-09T09:11:34.390Z,78.88
2022-11-09T09:14:37.827Z,86.78
2022-11-09T09:17:41.558Z,87.85
2022-11-09T09:20:45.445Z,105.57
2022-11-09T09:23:49.542Z,80.90
2022-11-09T09:26:52.267Z,101.22
2022-11-09T09:29:55.141Z,79.57
2022-11-09T09:33:00.442Z,71.00
2022-11-09T09:36:03.589Z,74.78
2022-11-09T09:39:06.391Z,67.47
2022-11-09T09:42:17.500Z,66.55
2022-11-09T09:45:33.972Z,54.30
2022-11-09T09:48:40.150Z,48.70
2022-11-09T09:51:53.955Z,53.35
2022-11-09T09:55:10.320Z,52.90
2022-11-09T09:58:19.542Z,52.13
2022-11-09T10:01:28.406Z,61.28
2022-11-09T10:04:41.855Z,63.53
2022-11-09T10:07:53.888Z,64.03
2022-11-09T10:11:08.548Z,56.83
2022-11-09T10:14:26.440Z,37.75
2022-11-09T10:17:40.198Z,33.65
2022-11-09T10:21:04.950Z,39.00
2022-11-09T10:24:23.032Z,41.88
2022-11-09T10:27:35.638Z,47.50
2022-11-09T10:30:40.026Z,51.22
2022-11-09T10:33:58.235Z,51.55
2022-11-09T10:37:12.912Z,41.78
2022-11-09T10:40:37.592Z,40.30
2022-11-09T10:43:59.077Z,44.03
2022-11-09T10:47:26.389Z,45.45
2022-11-09T10:50:54.481Z,39.50
2022-11-09T10:54:32.430Z,47.30
2022-11-09T10:58:13.040Z,46.60
2022-11-09T11:01:39.560Z,50.10
2022-11-09T11:05:07.207Z,47.08
2022-11-09T11:08:38.656Z,41.90
2022-11-09T11:12:17.640Z,40.63
2022-11-09T11:15:41.944Z,36.33
2022-11-09T11:19:06.346Z,37.50
2022-11-09T11:22:29.685Z,38.20
2022-11-09T11:25:56.208Z,42.85
2022-11-09T11:29:35.890Z,34.40
2022-11-09T11:32:57.856Z,34.92
2022-11-09T11:36:28.075Z,34.03
2022-11-09T11:40:19.529Z,31.13
2022-11-09T11:43:56.073Z,33.83
2022-11-09T11:47:39.432Z,29.55
2022-11-09T11:51:18.253Z,33.67
2022-11-09T11:55:14.727Z,33.87
2022-11-09T11:59:05.866Z,32.95
2022-11-09T12:02:51.486Z,38.60
2022-11-09T12:06:15.718Z,32.65
2022-11-09T12:09:53.175Z,32.20
2022-11-09T12:13:30.145Z,29.60
2022-11-09T12:16:59.718Z,35.15
2022-11-09T12:20:34.457Z,29.52
2022-11-09T12:24:15.990Z,29.45
2022-11-09T12:27:43.521Z,29.42
2022-11-09T12:31:10.561Z,28.97
2022-11-09T12:34:48.212Z,30.48
2022-11-09T12:39:16.273Z,32.53
2022-11-09T12:43:05.234Z,30.15
2022-11-09T12:46:40.389Z,39.33
2022-11-09T12:50:02.220Z,42.47
2022-11-09T12:53:28.169Z,40.53
2022-11-09T12:57:03.684Z,38.17
2022-11-09T13:00:34.266Z,36.10
2022-11-09T13:03:58.677Z,41.95
2022-11-09T13:07:33.372Z,37.53
2022-11-09T13:11:19.141Z,40.65
2022-11-09T13:14:41.388Z,36.55
2022-11-09T13:18:06.061Z,41.25
2022-11-09T13:21:27.812Z,41.65
2022-11-09T13:24:49.000Z,39.53
2022-11-09T13:29:07.954Z,44.33
2022-11-09T13:36:42.424Z,52.17
2022-11-09T13:40:31.947Z,50.47
2022-11-09T13:44:27.083Z,48.93
2022-11-09T13:47:52.189Z,47.30
2022-11-09T13:51:20.208Z,50.70
2022-11-09T13:54:44.578Z,49.42
2022-11-09T13:58:30.685Z,51.08
2022-11-09T14:01:54.093Z,51.90
2022-11-09T14:05:34.811Z,52.70
2022-11-09T14:08:57.740Z,51.92
2022-11-09T14:12:43.368Z,53.03
2022-11-09T14:16:50.156Z,52.35
2022-11-09T14:20:42.276Z,56.50
2022-11-09T14:24:23.879Z,53.75
2022-11-09T14:27:58.587Z,59.47
2022-11-09T14:31:33.967Z,56.25
2022-11-09T14:35:37.434Z,60.17
2022-11-09T14:39:03.806Z,61.30
2022-11-09T14:42:25.366Z,62.97
2022-11-09T15:01:20.474Z,61.35
2022-11-09T15:05:02.703Z,67.72
2022-11-09T15:08:23.924Z,83.95
2022-11-09T15:11:46.783Z,77.15
2022-11-09T15:15:19.458Z,78.00
2022-11-09T15:18:46.201Z,72.20
2022-11-09T15:22:45.621Z,69.50
2022-11-09T15:26:25.925Z,70.38
2022-11-09T15:29:51.032Z,93.32
2022-11-09T15:33:20.303Z,87.50
2022-11-09T15:36:46.114Z,88.28
2022-11-09T15:40:19.362Z,81.85
2022-11-09T15:43:41.821Z,78.65
2022-11-09T15:47:04.061Z,77.82
2022-11-09T15:50:27.385Z,79.47
2022-11-09T15:53:48.920Z,76.47
2022-11-09T15:57:16.348Z,78.18
2022-11-09T16:00:37.760Z,81.53
2022-11-09T16:03:59.028Z,79.97
2022-11-09T16:07:20.631Z,88.70
2022-11-09T16:10:44.487Z,91.60
2022-11-09T16:14:06.007Z,91.68
2022-11-09T16:17:29.335Z,77.07
2022-11-09T16:20:50.763Z,76.18
2022-11-09T16:24:12.014Z,80.60
2022-11-09T16:27:49.744Z,83.20
2022-11-09T16:31:13.168Z,75.07
2022-11-09T16:34:34.284Z,115.90
2022-11-09T16:37:57.584Z,104.65
2022-11-09T16:41:19.946Z,105.43
2022-11-09T16:44:43.106Z,92.35
2022-11-09T16:48:11.391Z,87.78
2022-11-09T16:51:33.024Z,81.57
2022-11-09T16:54:54.701Z,89.25
2022-11-09T16:58:16.026Z,85.73
2022-11-09T17:01:37.682Z,87.95
2022-11-09T17:04:58.790Z,98.05
2022-11-09T17:08:20.883Z,102.25
2022-11-09T17:11:42.112Z,119.75
2022-11-09T17:15:03.597Z,112.33
2022-11-09T17:18:25.130Z,111.93
2022-11-09T17:21:46.946Z,276.00
2022-11-09T17:25:09.421Z,137.45
2022-11-09T17:28:31.651Z,141.93
2022-11-09T17:31:53.497Z,128.43
2022-11-09T17:35:14.679Z,136.50
2022-11-09T17:38:36.076Z,135.13
2022-11-09T17:41:57.377Z,145.88
2022-11-09T17:45:18.789Z,140.13
2022-11-09T17:48:42.171Z,148.90
2022-11-09T17:52:03.569Z,139.40
2022-11-09T17:55:25.178Z,146.15
2022-11-09T17:58:47.404Z,140.07
2022-11-09T18:02:10.698Z,166.07
2022-11-09T18:05:32.066Z,160.23
2022-11-09T18:09:19.280Z,160.55
2022-11-09T18:12:35.031Z,177.07
2022-11-09T18:15:56.244Z,159.02
2022-11-09T18:19:17.743Z,160.93
2022-11-09T18:22:39.099Z,173.97
2022-11-09T18:26:00.773Z,181.13
2022-11-09T18:29:22.270Z,183.95
2022-11-09T18:32:43.954Z,155.75
2022-11-09T18:36:09.376Z,148.13
2022-11-09T18:39:31.223Z,139.07
2022-11-09T18:43:03.734Z,122.82
2022-11-09T18:46:27.046Z,105.97
2022-11-09T18:49:49.743Z,114.63
2022-11-09T18:53:11.455Z,102.10
2022-11-09T18:56:32.841Z,110.47
2022-11-09T18:59:54.537Z,110.30
2022-11-09T19:03:16.488Z,100.32
2022-11-09T19:06:37.892Z,101.47
2022-11-09T19:09:59.595Z,98.55
2022-11-09T19:13:42.560Z,110.77
2022-11-09T19:17:37.394Z,112.13
2022-11-09T19:20:58.856Z,166.32
2022-11-09T19:24:22.397Z,130.27
2022-11-09T19:27:43.765Z,145.77
2022-11-09T19:31:05.310Z,152.33
2022-11-09T19:34:26.471Z,182.55
2022-11-09T19:37:47.989Z,143.93
2022-11-09T19:41:10.212Z,144.05
2022-11-09T19:44:32.059Z,116.65
2022-11-09T19:47:53.777Z,140.57
2022-11-09T19:51:17.910Z,166.43
2022-11-09T19:54:39.738Z,154.80
2022-11-09T19:58:01.620Z,148.07
2022-11-09T20:01:25.062Z,161.98
2022-11-09T20:04:47.657Z,109.63
2022-11-09T20:08:10.360Z,102.57
2022-11-09T20:11:50.544Z,106.32
2022-11-09T20:15:11.845Z,138.98
2022-11-09T20:18:37.960Z,136.40
2022-11-09T20:22:00.081Z,129.37
2022-11-09T20:25:21.895Z,107.70
2022-11-09T20:28:44.025Z,86.68
2022-11-09T20:32:05.412Z,82.72
2022-11-09T20:35:27.048Z,84.35
2022-11-09T20:38:48.813Z,99.67
2022-11-09T20:42:13.502Z,94.45
2022-11-09T20:45:36.473Z,102.82
2022-11-09T20:48:58.085Z,110.65
2022-11-09T20:52:20.031Z,113.13
2022-11-09T20:55:42.972Z,106.37
2022-11-09T20:59:05.531Z,104.10
2022-11-09T21:02:26.963Z,92.47
2022-11-09T21:05:52.406Z,90.20
2022-11-09T21:09:15.970Z,79.90
2022-11-09T21:12:37.459Z,81.17
2022-11-09T21:16:13.885Z,76.20
2022-11-09T21:19:35.649Z,80.15
2022-11-09T21:23:13.704Z,79.43
2022-11-09T21:26:54.305Z,93.03
2022-11-09T21:30:15.834Z,107.07
2022-11-09T21:33:37.583Z,96.03
2022-11-09T21:36:59.171Z,82.60
2022-11-09T21:40:20.698Z,80.30
2022-11-09T21:43:41.620Z,76.88
2022-11-09T21:47:03.397Z,79.97
2022-11-09T21:50:24.492Z,77.35
2022-11-09T21:53:46.694Z,82.43
2022-11-09T21:57:07.946Z,76.25
2022-11-09T22:00:29.028Z,76.45
2022-11-09T22:03:50.723Z,79.53
2022-11-09T22:07:11.834Z,79.63
2022-11-09T22:10:33.411Z,83.00
2022-11-09T22:14:12.628Z,74.72
2022-11-09T22:17:34.011Z,70.78
2022-11-09T22:20:56.862Z,71.03
2022-11-09T22:24:17.969Z,73.05
2022-11-09T22:27:39.132Z,73.35
2022-11-09T22:31:07.744Z,74.35
2022-11-09T22:34:29.139Z,71.45
2022-11-09T22:37:50.294Z,80.90
2022-11-09T22:41:14.354Z,80.03
2022-11-09T22:44:35.843Z,83.30
2022-11-09T22:47:56.985Z,83.53
2022-11-09T22:51:19.442Z,85.38
2022-11-09T22:54:40.402Z,80.77
2022-11-09T22:58:01.640Z,83.22
2022-11-09T23:01:23.008Z,80.00
2022-11-09T23:04:44.104Z,78.38
2022-11-09T23:08:05.871Z,80.63
2022-11-09T23:11:26.859Z,88.77
2022-11-09T23:15:05.871Z,89.47
2022-11-09T23:18:46.168Z,94.78
2022-11-09T23:22:07.600Z,81.72
2022-11-09T23:25:47.869Z,87.60
2022-11-09T23:29:09.018Z,84.83
2022-11-09T23:32:30.359Z,76.95
2022-11-09T23:35:51.238Z,75.90
2022-11-09T23:39:12.215Z,75.22
2022-11-09T23:42:33.708Z,73.05
2022-11-09T23:45:55.544Z,74.57
2022-11-09T23:49:16.852Z,71.75
2022-11-09T23:52:37.952Z,71.78
2022-11-09T23:56:05.999Z,65.65
2022-11-09T23:59:27.241Z,68.00
